Time;durP1;ratioP1;P1;durP2;ratioP2;P2;SDS_P1;SDS_P2;PMS_P1;PMS_P2;Temp;Humidity;BMP_temperature;BMP_pressure;BME280_temperature;BME280_humidity;BME280_pressure;Samples;Min_cycle;Max_cycle;Signal;HPM_P1;HPM_P2
2020/12/03 10:54:40;;;;;;;1.73;1.30;;;16.70;56.90;;;;;;5063667;27;20579;-90
2020/12/03 10:57:21;;;;;;;1.40;1.30;;;16.90;57.30;;;;;;5048391;28;20429;-90
2020/12/03 10:59:47;;;;;;;1.50;1.40;;;16.90;57.30;;;;;;5043215;28;20436;-90
2020/12/03 11:02:21;;;;;;;1.57;1.47;;;16.90;57.30;;;;;;5042356;28;20946;-90
2020/12/03 11:04:48;;;;;;;2.07;1.40;;;16.90;57.30;;;;;;5043513;28;20379;-90
2020/12/03 11:07:14;;;;;;;1.53;1.43;;;16.90;57.40;;;;;;5043624;28;20462;-90
2020/12/03 11:09:41;;;;;;;1.33;1.23;;;16.90;57.40;;;;;;5041627;28;20443;-90
2020/12/03 11:12:09;;;;;;;3.57;1.50;;;16.90;57.40;;;;;;5043651;28;20562;-90
2020/12/03 11:14:35;;;;;;;1.43;1.33;;;16.90;57.50;;;;;;5043571;28;20504;-90
2020/12/03 11:17:23;;;;;;;1.60;1.40;;;16.90;57.40;;;;;;5042611;28;20820;-90
2020/12/03 11:19:53;;;;;;;1.40;1.30;;;16.90;57.50;;;;;;5014033;28;20203;-90
2020/12/03 11:22:41;;;;;;;1.73;1.33;;;16.90;57.50;;;;;;5042213;28;20420;-90
2020/12/03 11:25:09;;;;;;;1.60;1.50;;;16.90;57.50;;;;;;5043304;28;20380;-90
2020/12/03 11:27:37;;;;;;;1.27;1.17;;;16.90;57.50;;;;;;5042075;28;20409;-90
2020/12/03 11:30:18;;;;;;;1.60;1.50;;;16.90;57.50;;;;;;5041495;28;20434;-90
2020/12/03 11:32:48;;;;;;;1.57;1.47;;;16.90;57.50;;;;;;5043048;28;20453;-90
2020/12/03 11:35:32;;;;;;;1.50;1.40;;;16.90;57.50;;;;;;5043254;28;20983;-90
2020/12/03 11:38:02;;;;;;;1.43;1.30;;;16.80;57.50;;;;;;5043173;28;20420;-91
2020/12/03 11:40:45;;;;;;;1.20;1.10;;;16.90;57.50;;;;;;5041375;28;20429;-90
2020/12/03 11:43:33;;;;;;;1.60;1.50;;;16.90;57.50;;;;;;5041718;28;20418;-90
2020/12/03 11:48:57;;;;;;;2.00;1.30;;;16.90;57.50;;;;;;5046928;28;20432;-90
2020/12/03 11:51:30;;;;;;;1.60;1.40;;;16.90;57.50;;;;;;5061651;28;20410;-90
2020/12/03 11:53:57;;;;;;;1.20;1.10;;;16.90;57.50;;;;;;5042712;28;20490;-90
2020/12/03 11:56:23;;;;;;;1.40;1.30;;;16.90;57.40;;;;;;5042814;28;20522;-90
2020/12/03 11:58:48;;;;;;;1.63;1.53;;;16.90;57.40;;;;;;5041362;28;20450;-90
2020/12/03 12:01:16;;;;;;;1.23;1.10;;;16.90;57.30;;;;;;5041150;28;20171;-90
2020/12/03 12:03:45;;;;;;;1.80;1.70;;;16.90;57.30;;;;;;5042572;28;20249;-90
2020/12/03 12:06:27;;;;;;;1.50;1.30;;;16.90;57.30;;;;;;5027755;28;20484;-91
2020/12/03 12:09:06;;;;;;;1.53;1.40;;;16.90;57.20;;;;;;5029192;28;20849;-92
2020/12/03 12:11:36;;;;;;;1.87;1.77;;;16.90;57.30;;;;;;5027006;28;20414;-91
2020/12/03 12:14:01;;;;;;;1.23;1.13;;;16.90;57.40;;;;;;5028370;28;20446;-91
2020/12/03 12:16:27;;;;;;;1.40;1.30;;;16.90;57.40;;;;;;5043961;28;20740;-91
2020/12/03 12:18:54;;;;;;;1.60;1.50;;;16.90;57.40;;;;;;5048981;28;20861;-91
2020/12/03 12:21:20;;;;;;;1.20;1.10;;;16.90;57.50;;;;;;5047863;28;20170;-90
2020/12/03 12:23:45;;;;;;;1.50;1.40;;;16.90;57.50;;;;;;5047638;28;20417;-91
2020/12/03 12:26:11;;;;;;;1.73;1.63;;;16.90;57.50;;;;;;5047413;28;20182;-90
2020/12/03 12:28:36;;;;;;;1.30;1.20;;;16.90;57.50;;;;;;5047789;28;20642;-91
2020/12/03 12:31:02;;;;;;;1.27;1.17;;;16.80;57.40;;;;;;5047682;28;20202;-91
2020/12/03 12:33:27;;;;;;;1.40;1.30;;;16.90;57.50;;;;;;5049057;28;20219;-91
2020/12/03 12:35:53;;;;;;;1.33;1.23;;;16.80;57.40;;;;;;5049126;28;20174;-91
2020/12/03 12:38:18;;;;;;;1.60;1.50;;;16.90;57.50;;;;;;5049063;28;20191;-91
2020/12/03 12:40:44;;;;;;;1.50;1.40;;;16.90;57.50;;;;;;5047300;28;20732;-90
2020/12/03 12:43:09;;;;;;;1.97;1.20;;;16.90;57.50;;;;;;5048860;28;20182;-90
2020/12/03 12:45:35;;;;;;;1.50;1.40;;;16.80;57.40;;;;;;5047847;28;20178;-91
2020/12/03 12:48:00;;;;;;;1.40;1.30;;;16.90;57.50;;;;;;5048872;28;20180;-91
2020/12/03 12:50:26;;;;;;;1.53;1.43;;;16.80;57.40;;;;;;5047521;28;20197;-91
2020/12/03 12:52:51;;;;;;;1.17;1.07;;;16.90;57.50;;;;;;5048606;28;20204;-91
2020/12/03 12:55:17;;;;;;;1.13;1.03;;;16.90;57.50;;;;;;5048801;28;20165;-91
2020/12/03 12:57:43;;;;;;;1.47;1.37;;;16.80;57.40;;;;;;5054327;28;20168;-91
2020/12/03 13:00:08;;;;;;;1.20;1.10;;;16.90;57.50;;;;;;5047451;28;20205;-90
2020/12/03 13:02:34;;;;;;;1.27;1.17;;;16.80;57.40;;;;;;5047241;28;20202;-91
2020/12/03 13:04:59;;;;;;;1.13;1.03;;;16.90;57.40;;;;;;5050367;28;20706;-92
2020/12/03 13:07:25;;;;;;;1.50;1.40;;;16.90;57.30;;;;;;5047157;28;20194;-91
2020/12/03 13:09:50;;;;;;;1.30;1.20;;;16.90;57.30;;;;;;5046823;28;20201;-91
2020/12/03 13:12:17;;;;;;;1.50;1.40;;;16.90;57.30;;;;;;5048442;28;20166;-91
2020/12/03 13:14:42;;;;;;;1.33;1.20;;;16.90;57.30;;;;;;5048679;28;20167;-90
2020/12/03 13:17:08;;;;;;;1.20;1.10;;;16.90;57.30;;;;;;5046621;28;20423;-91
2020/12/03 13:19:34;;;;;;;1.30;1.20;;;16.90;57.30;;;;;;5048794;28;20192;-91
2020/12/03 13:22:00;;;;;;;1.33;1.23;;;16.90;57.20;;;;;;5047550;28;20517;-90
2020/12/03 13:24:25;;;;;;;1.23;1.13;;;16.90;57.30;;;;;;5047407;28;20719;-89
2020/12/03 13:26:52;;;;;;;1.27;1.17;;;16.90;57.40;;;;;;5047205;28;20412;-91
2020/12/03 13:29:18;;;;;;;1.27;1.17;;;16.80;57.40;;;;;;5047029;28;20195;-90
2020/12/03 13:31:45;;;;;;;1.43;1.33;;;16.90;57.40;;;;;;5047174;28;20469;-90
2020/12/03 13:34:11;;;;;;;1.30;1.20;;;16.80;57.30;;;;;;5048188;28;20802;-92
2020/12/03 13:36:36;;;;;;;1.20;1.10;;;16.90;57.40;;;;;;5048291;28;20409;-91
2020/12/03 13:39:02;;;;;;;1.37;1.27;;;16.90;57.40;;;;;;5046851;28;20677;-91
2020/12/03 13:41:28;;;;;;;1.30;1.00;;;16.80;57.40;;;;;;5046954;28;20177;-90
2020/12/03 13:43:53;;;;;;;1.40;1.30;;;16.90;57.40;;;;;;5046849;28;20186;-92
2020/12/03 13:46:19;;;;;;;1.53;1.43;;;16.90;57.40;;;;;;5046910;28;20226;-90
2020/12/03 13:48:45;;;;;;;1.10;1.00;;;16.90;57.40;;;;;;5046772;28;20201;-91
2020/12/03 13:51:13;;;;;;;1.20;1.10;;;16.90;57.40;;;;;;5046669;28;20173;-91
2020/12/03 13:53:39;;;;;;;1.33;1.23;;;16.80;57.40;;;;;;5046583;28;20461;-90
2020/12/03 13:56:05;;;;;;;1.10;1.00;;;16.90;57.40;;;;;;5046541;28;21075;-91
2020/12/03 13:58:31;;;;;;;1.20;1.10;;;16.80;57.40;;;;;;5047784;28;20409;-90
2020/12/03 14:00:57;;;;;;;1.20;1.10;;;16.80;57.40;;;;;;5046456;28;20414;-91
2020/12/03 14:03:22;;;;;;;1.40;1.30;;;16.80;57.40;;;;;;5046604;28;20233;-90
2020/12/03 14:05:48;;;;;;;1.40;1.30;;;16.80;57.40;;;;;;5047515;28;20635;-91
2020/12/03 14:08:14;;;;;;;1.30;1.20;;;16.80;57.40;;;;;;5046635;28;20178;-91
2020/12/03 14:10:40;;;;;;;1.27;1.17;;;16.90;57.40;;;;;;5046429;28;20433;-90
2020/12/03 14:13:06;;;;;;;1.20;1.10;;;16.90;57.40;;;;;;5047782;28;20190;-91
2020/12/03 14:15:32;;;;;;;1.27;1.17;;;16.90;57.30;;;;;;5045946;28;20726;-90
2020/12/03 14:17:57;;;;;;;1.27;1.17;;;16.90;57.30;;;;;;5046182;28;20469;-92
2020/12/03 14:20:23;;;;;;;1.20;1.10;;;16.90;57.30;;;;;;5046119;28;20195;-90
2020/12/03 14:22:49;;;;;;;1.20;1.10;;;16.90;57.30;;;;;;5046138;28;20176;-90
2020/12/03 14:25:15;;;;;;;1.40;1.30;;;16.90;57.30;;;;;;5046363;28;20172;-92
2020/12/03 14:27:46;;;;;;;1.33;1.23;;;16.90;57.20;;;;;;5045960;28;20542;-90
2020/12/03 14:30:16;;;;;;;1.30;1.20;;;16.90;57.20;;;;;;5046109;28;20442;-91
2020/12/03 14:32:41;;;;;;;1.23;1.13;;;16.90;57.20;;;;;;5044539;28;20447;-92
2020/12/03 14:35:07;;;;;;;1.70;1.13;;;16.90;57.20;;;;;;5046016;28;20410;-90
2020/12/03 14:37:36;;;;;;;1.20;1.10;;;16.90;57.30;;;;;;5045869;28;20634;-90
2020/12/03 14:40:07;;;;;;;1.30;1.20;;;16.90;57.90;;;;;;5047288;28;20187;-90
2020/12/03 14:42:34;;;;;;;1.30;1.20;;;16.90;57.40;;;;;;5047315;28;20873;-90
2020/12/03 14:45:03;;;;;;;1.37;1.27;;;16.90;57.40;;;;;;5045735;28;20416;-91
2020/12/03 14:47:31;;;;;;;1.30;1.20;;;16.80;57.40;;;;;;5047165;28;20823;-91
2020/12/03 14:49:56;;;;;;;1.50;1.23;;;16.90;57.50;;;;;;5045743;28;20488;-91
2020/12/03 14:52:22;;;;;;;1.43;1.33;;;16.90;57.40;;;;;;5045601;28;21117;-91
2020/12/03 14:54:48;;;;;;;1.30;1.20;;;16.90;57.50;;;;;;5045745;28;20210;-90
2020/12/03 14:57:13;;;;;;;1.30;1.13;;;16.80;57.40;;;;;;5045747;28;20181;-89
2020/12/03 14:59:39;;;;;;;1.30;1.20;;;16.90;57.50;;;;;;5045561;28;20473;-92
2020/12/03 15:02:20;;;;;;;1.47;1.37;;;16.90;57.50;;;;;;5047180;28;20249;-90
2020/12/03 15:04:47;;;;;;;1.20;1.10;;;16.90;57.50;;;;;;5045646;28;20204;-90
2020/12/03 15:07:13;;;;;;;1.53;1.30;;;16.90;57.80;;;;;;5046005;28;21161;-91
2020/12/03 15:09:39;;;;;;;1.43;1.33;;;16.90;57.50;;;;;;5045478;28;20429;-90
2020/12/03 15:12:11;;;;;;;1.40;1.30;;;16.90;57.50;;;;;;5045512;28;20754;-90
2020/12/03 15:14:37;;;;;;;1.30;1.20;;;16.90;57.50;;;;;;5045488;28;20445;-91
2020/12/03 15:17:02;;;;;;;1.23;1.13;;;16.80;57.40;;;;;;5045482;28;20508;-90
2020/12/03 15:19:28;;;;;;;1.10;1.00;;;16.80;57.40;;;;;;5045263;28;20527;-90
2020/12/03 15:21:54;;;;;;;1.73;1.63;;;16.90;57.50;;;;;;5045444;28;20166;-91
2020/12/03 15:24:19;;;;;;;1.50;1.40;;;16.90;57.40;;;;;;5045709;28;20179;-92
2020/12/03 15:26:45;;;;;;;1.30;1.20;;;16.90;57.30;;;;;;5050991;28;20169;-92
2020/12/03 15:29:10;;;;;;;1.10;1.00;;;16.90;57.30;;;;;;5048983;28;20267;-93
2020/12/03 15:31:36;;;;;;;1.23;1.00;;;16.90;57.30;;;;;;5050597;28;20188;-91
2020/12/03 15:34:02;;;;;;;1.93;1.30;;;16.90;57.20;;;;;;5045286;28;20200;-91
2020/12/03 15:36:27;;;;;;;1.13;1.03;;;16.90;57.20;;;;;;5046236;28;20185;-91
2020/12/03 15:38:53;;;;;;;1.93;1.27;;;16.90;57.20;;;;;;5046149;28;20190;-91
2020/12/03 15:41:18;;;;;;;1.53;1.43;;;16.90;57.30;;;;;;5047881;28;20170;-91
2020/12/03 15:43:44;;;;;;;1.20;1.10;;;16.90;57.40;;;;;;5048450;28;20313;-91
2020/12/03 15:46:12;;;;;;;1.30;1.20;;;16.90;57.40;;;;;;5049726;28;20166;-91
2020/12/03 15:48:38;;;;;;;1.20;1.10;;;16.90;57.40;;;;;;5049463;28;20229;-91
2020/12/03 15:51:08;;;;;;;1.50;1.40;;;16.90;57.50;;;;;;5049477;28;20746;-91
2020/12/03 15:53:33;;;;;;;1.23;1.13;;;16.80;57.40;;;;;;5048853;28;20456;-89
2020/12/03 15:56:00;;;;;;;1.20;1.10;;;16.80;57.40;;;;;;5049727;28;20461;-92
2020/12/03 15:58:27;;;;;;;1.43;1.33;;;16.90;57.50;;;;;;5049532;28;20898;-92
2020/12/03 16:00:54;;;;;;;1.20;1.10;;;16.80;57.50;;;;;;5048393;28;20408;-92
2020/12/03 16:03:19;;;;;;;1.70;1.60;;;16.90;57.50;;;;;;5050156;28;20418;-91
2020/12/03 16:05:45;;;;;;;1.50;1.40;;;16.90;56.90;;;;;;5038172;28;21965;-90
2020/12/03 16:08:10;;;;;;;1.30;1.20;;;16.90;56.90;;;;;;5045440;28;20182;-91
2020/12/03 16:10:36;;;;;;;1.63;1.53;;;16.90;57.00;;;;;;5042361;28;20733;-90
2020/12/03 16:13:02;;;;;;;2.03;1.30;;;16.80;57.00;;;;;;5046563;28;20198;-89
2020/12/03 16:15:27;;;;;;;1.30;1.20;;;16.90;57.20;;;;;;5048644;28;20174;-90
2020/12/03 16:17:53;;;;;;;1.20;1.10;;;16.80;57.10;;;;;;5047422;28;20427;-90
2020/12/03 16:20:18;;;;;;;1.47;1.37;;;16.90;57.20;;;;;;5048268;28;20853;-90
2020/12/03 16:22:44;;;;;;;1.37;1.27;;;16.90;57.20;;;;;;5047188;28;20184;-90
2020/12/03 16:25:10;;;;;;;1.30;1.20;;;16.90;57.30;;;;;;5047199;28;20170;-90
2020/12/03 16:27:36;;;;;;;1.47;1.33;;;16.90;57.30;;;;;;5037521;28;20279;-90
2020/12/03 16:30:05;;;;;;;1.40;1.30;;;16.90;57.30;;;;;;5026946;28;20443;-90
2020/12/03 16:32:30;;;;;;;1.50;1.40;;;16.90;57.30;;;;;;5032977;28;20416;-91
2020/12/03 16:34:56;;;;;;;1.60;1.50;;;16.80;57.10;;;;;;5045775;28;20452;-91
2020/12/03 16:37:22;;;;;;;1.13;1.10;;;16.90;57.20;;;;;;5129953;27;20171;-91
2020/12/03 16:39:47;;;;;;;1.30;1.17;;;16.90;57.20;;;;;;5153288;27;20682;-91
2020/12/03 16:42:13;;;;;;;1.20;1.10;;;16.90;57.10;;;;;;5105214;27;20595;-90
2020/12/03 16:44:39;;;;;;;2.93;1.50;;;16.90;57.10;;;;;;5027508;28;20640;-91
2020/12/03 16:47:04;;;;;;;1.30;1.20;;;16.90;57.10;;;;;;5027421;28;20176;-90
2020/12/03 16:49:31;;;;;;;2.07;1.37;;;16.90;57.10;;;;;;5026237;28;20962;-90
2020/12/03 16:52:01;;;;;;;1.27;1.17;;;16.90;57.20;;;;;;5029149;28;20702;-90
2020/12/03 16:54:27;;;;;;;1.10;1.00;;;16.90;57.20;;;;;;5027004;28;20456;-90
2020/12/03 16:56:54;;;;;;;1.20;1.10;;;16.80;57.20;;;;;;5033445;28;20452;-90
2020/12/03 16:59:21;;;;;;;1.70;1.17;;;16.90;57.30;;;;;;5047354;28;20425;-90
2020/12/03 17:01:46;;;;;;;1.20;1.10;;;16.90;57.30;;;;;;5048091;28;20408;-90
2020/12/03 17:04:12;;;;;;;1.20;1.10;;;16.80;57.30;;;;;;5046661;28;20437;-88
2020/12/03 17:06:38;;;;;;;1.50;1.30;;;16.80;57.30;;;;;;5049276;28;20186;-92
2020/12/03 17:09:05;;;;;;;1.57;1.20;;;16.90;57.40;;;;;;5047601;28;20682;-91
2020/12/03 17:11:31;;;;;;;1.37;1.27;;;16.90;57.40;;;;;;5026608;28;20938;-90
2020/12/03 17:13:56;;;;;;;1.60;1.50;;;16.90;57.30;;;;;;5037519;28;20544;-91
2020/12/03 17:16:22;;;;;;;1.50;1.40;;;16.80;57.30;;;;;;5039058;28;20178;-92
2020/12/03 17:18:48;;;;;;;1.50;1.40;;;16.80;57.30;;;;;;5047041;28;20194;-92
2020/12/03 17:21:14;;;;;;;1.10;1.00;;;16.90;57.40;;;;;;5047754;28;20256;-90
2020/12/03 17:23:40;;;;;;;1.50;1.40;;;16.90;57.40;;;;;;5047347;28;20491;-91
2020/12/03 17:26:08;;;;;;;1.37;1.27;;;16.80;57.20;;;;;;5044983;28;20194;-91
2020/12/03 17:28:41;;;;;;;1.40;1.10;;;16.80;57.20;;;;;;5034936;28;21023;-90
2020/12/03 17:31:08;;;;;;;1.60;1.50;;;16.80;57.30;;;;;;5026158;28;20400;-91
2020/12/03 17:33:34;;;;;;;1.10;1.00;;;16.80;57.30;;;;;;5027222;28;20476;-90
2020/12/03 17:36:01;;;;;;;1.30;1.20;;;16.80;57.30;;;;;;5033682;28;20777;-90
2020/12/03 17:38:27;;;;;;;1.20;1.10;;;16.80;57.30;;;;;;5043097;28;20634;-91
2020/12/03 17:40:54;;;;;;;1.47;1.37;;;16.80;57.30;;;;;;5026883;28;20430;-91
2020/12/03 17:43:20;;;;;;;1.50;1.40;;;16.80;57.30;;;;;;5035065;28;20965;-90
2020/12/03 17:45:46;;;;;;;1.30;1.20;;;16.90;57.30;;;;;;5045736;28;20506;-91
2020/12/03 17:48:11;;;;;;;1.30;1.20;;;16.90;57.80;;;;;;5045155;28;20179;-91
2020/12/03 17:50:39;;;;;;;1.50;1.40;;;16.90;57.20;;;;;;5046317;28;20195;-91
2020/12/03 17:53:04;;;;;;;1.63;1.40;;;16.90;57.20;;;;;;5046894;28;20492;-91
2020/12/03 17:55:30;;;;;;;1.83;1.40;;;16.90;57.10;;;;;;5047299;28;20897;-90
2020/12/03 17:57:55;;;;;;;1.30;1.20;;;16.90;57.10;;;;;;5043571;28;20169;-91
2020/12/03 18:00:21;;;;;;;1.50;1.40;;;16.90;57.20;;;;;;5027249;28;20200;-90
2020/12/03 18:02:46;;;;;;;1.20;1.10;;;16.90;57.30;;;;;;5032279;28;20263;-93
2020/12/03 18:05:12;;;;;;;1.33;1.23;;;16.90;57.40;;;;;;5048075;28;20202;-91
2020/12/03 18:07:38;;;;;;;1.33;1.23;;;16.80;57.30;;;;;;5047664;28;20163;-91
2020/12/03 18:10:05;;;;;;;1.67;1.20;;;16.80;57.20;;;;;;5046144;28;20204;-91
2020/12/03 18:12:32;;;;;;;1.27;1.17;;;16.90;57.30;;;;;;5041193;28;20227;-91
2020/12/03 18:14:58;;;;;;;1.20;1.10;;;16.80;57.30;;;;;;5040366;28;20934;-91
2020/12/03 18:17:23;;;;;;;1.50;1.40;;;16.80;57.30;;;;;;5047502;28;20445;-90
2020/12/03 18:19:49;;;;;;;1.30;1.20;;;16.80;57.30;;;;;;5044540;28;20201;-91
2020/12/03 18:22:14;;;;;;;1.27;1.17;;;16.80;57.30;;;;;;5045252;28;20193;-91
2020/12/03 18:24:40;;;;;;;1.30;1.20;;;16.80;57.30;;;;;;5046464;28;20205;-91
2020/12/03 18:27:05;;;;;;;1.20;1.10;;;16.80;57.30;;;;;;5045951;28;20175;-92
2020/12/03 18:29:31;;;;;;;1.40;1.30;;;16.90;57.30;;;;;;5044607;28;21211;-91
2020/12/03 18:31:56;;;;;;;1.07;1.00;;;16.80;57.30;;;;;;5044279;28;20182;-92
2020/12/03 18:34:22;;;;;;;1.23;1.13;;;16.80;57.30;;;;;;5044864;28;20566;-91
2020/12/03 18:36:47;;;;;;;0.93;0.93;;;16.80;57.30;;;;;;5045075;28;20187;-90
2020/12/03 18:39:14;;;;;;;1.30;1.20;;;16.80;57.30;;;;;;5045539;28;20191;-90
2020/12/03 18:41:46;;;;;;;1.17;1.07;;;16.80;57.20;;;;;;5042306;28;20173;-90
2020/12/03 18:44:12;;;;;;;1.10;1.00;;;16.80;57.30;;;;;;5046475;28;20469;-90
2020/12/03 18:46:37;;;;;;;1.20;1.10;;;16.90;57.40;;;;;;5043386;28;20936;-90
2020/12/03 18:49:03;;;;;;;1.40;1.30;;;16.90;57.30;;;;;;5046934;28;20251;-91
2020/12/03 18:51:29;;;;;;;1.00;0.90;;;16.80;57.20;;;;;;5046034;28;20240;-93
2020/12/03 18:53:55;;;;;;;1.43;1.33;;;16.90;57.20;;;;;;5044941;28;20461;-92
2020/12/03 18:56:20;;;;;;;1.60;1.10;;;16.90;57.20;;;;;;5045330;28;20194;-92
2020/12/03 18:58:46;;;;;;;1.40;1.30;;;16.90;57.20;;;;;;5046188;28;20731;-92
2020/12/03 19:01:11;;;;;;;1.53;1.33;;;16.90;57.20;;;;;;5044791;28;20169;-92
2020/12/03 19:03:38;;;;;;;1.20;1.10;;;16.90;57.20;;;;;;5046443;28;20230;-91
2020/12/03 19:06:04;;;;;;;1.80;1.30;;;16.80;57.20;;;;;;5046675;28;20173;-89
2020/12/03 19:08:33;;;;;;;1.40;1.30;;;16.80;57.30;;;;;;5045411;28;20420;-90
2020/12/03 19:10:59;;;;;;;1.20;1.10;;;16.80;57.30;;;;;;5044618;28;20596;-90
2020/12/03 19:13:24;;;;;;;1.33;1.23;;;16.90;57.30;;;;;;5046251;28;20460;-90
2020/12/03 19:15:50;;;;;;;1.20;1.10;;;16.80;57.30;;;;;;5044679;28;20427;-90
2020/12/03 19:18:16;;;;;;;1.70;1.60;;;16.80;57.30;;;;;;5030486;28;20175;-91
2020/12/03 19:20:41;;;;;;;1.00;0.90;;;16.90;57.40;;;;;;5028526;28;20199;-90
2020/12/03 19:23:07;;;;;;;1.40;1.30;;;16.80;57.30;;;;;;5028664;28;20181;-89
2020/12/03 19:25:33;;;;;;;1.20;1.10;;;16.80;57.30;;;;;;5030212;28;20185;-89
2020/12/03 19:27:58;;;;;;;1.30;1.20;;;16.80;57.30;;;;;;5028274;28;20475;-90
2020/12/03 19:30:24;;;;;;;1.20;1.10;;;16.90;57.40;;;;;;5043591;28;20197;-92
2020/12/03 19:32:50;;;;;;;1.10;1.00;;;16.80;57.40;;;;;;5049123;28;20226;-91
2020/12/03 19:35:15;;;;;;;1.37;1.27;;;16.80;57.40;;;;;;5050464;28;20166;-91
2020/12/03 19:37:41;;;;;;;1.10;1.00;;;16.90;57.40;;;;;;5049385;28;20186;-92
2020/12/03 19:40:09;;;;;;;1.10;1.00;;;16.90;57.40;;;;;;5046504;28;20286;-91
2020/12/03 19:42:35;;;;;;;1.20;1.10;;;16.80;57.40;;;;;;5029822;28;20195;-92
2020/12/03 19:45:01;;;;;;;1.07;1.00;;;16.80;57.40;;;;;;5029135;28;20467;-91
2020/12/03 19:47:28;;;;;;;1.27;1.17;;;16.80;57.40;;;;;;5044870;28;20465;-92
2020/12/03 19:49:53;;;;;;;1.30;1.20;;;16.80;57.40;;;;;;5049711;27;20200;-92
2020/12/03 19:52:19;;;;;;;1.47;1.37;;;16.90;57.50;;;;;;5049244;28;20423;-93
2020/12/03 19:54:46;;;;;;;0.90;0.90;;;16.90;57.40;;;;;;5049967;27;20445;-93
2020/12/03 19:57:12;;;;;;;0.93;0.93;;;16.90;57.40;;;;;;5050426;28;20166;-93
2020/12/03 19:59:37;;;;;;;1.30;1.20;;;16.90;57.30;;;;;;5049744;28;20493;-93
2020/12/03 20:02:03;;;;;;;1.33;1.23;;;16.90;57.40;;;;;;5043214;28;20189;-90
2020/12/03 20:04:29;;;;;;;1.30;1.20;;;16.90;57.30;;;;;;5028946;28;20620;-92
2020/12/03 20:06:54;;;;;;;1.20;1.10;;;16.90;57.30;;;;;;5045609;28;20177;-92
2020/12/03 20:09:20;;;;;;;1.23;1.13;;;16.90;57.30;;;;;;5047939;28;20246;-92
2020/12/03 20:11:45;;;;;;;1.20;1.10;;;16.90;57.20;;;;;;5044060;28;20193;-92
2020/12/03 20:14:11;;;;;;;1.27;1.17;;;16.90;57.20;;;;;;5048480;28;20218;-92
2020/12/03 20:16:37;;;;;;;1.50;1.27;;;16.90;57.20;;;;;;5049709;28;20204;-92
2020/12/03 20:19:03;;;;;;;1.23;1.13;;;16.90;57.20;;;;;;5050762;28;20197;-91
2020/12/03 20:21:28;;;;;;;1.20;1.10;;;16.90;57.20;;;;;;5046120;28;20213;-92
2020/12/03 20:23:54;;;;;;;1.00;1.00;;;16.90;57.10;;;;;;5030775;28;20270;-92
2020/12/03 20:26:19;;;;;;;1.40;1.30;;;16.90;57.20;;;;;;5030276;28;20177;-92
2020/12/03 20:28:46;;;;;;;1.40;1.30;;;16.90;57.10;;;;;;5047674;28;20210;-92
2020/12/03 20:31:15;;;;;;;1.30;1.20;;;16.90;57.10;;;;;;5048931;28;20174;-92
2020/12/03 20:33:42;;;;;;;1.10;1.00;;;16.90;57.10;;;;;;5033218;28;20476;-92
2020/12/03 20:36:08;;;;;;;1.10;0.90;;;16.90;57.10;;;;;;5049557;28;20404;-91
2020/12/03 20:38:33;;;;;;;1.20;1.10;;;16.90;57.20;;;;;;5048306;28;21001;-92
2020/12/03 20:40:59;;;;;;;2.33;1.20;;;16.90;57.30;;;;;;5078081;27;20518;-92
2020/12/03 20:43:25;;;;;;;1.20;1.10;;;16.90;57.20;;;;;;5049435;28;20184;-90
2020/12/03 20:45:50;;;;;;;1.40;1.30;;;16.90;57.20;;;;;;5044248;28;20285;-92
2020/12/03 20:48:16;;;;;;;1.40;1.30;;;16.90;57.10;;;;;;5029473;28;20388;-92
2020/12/03 20:50:42;;;;;;;1.20;1.10;;;16.90;57.10;;;;;;5043624;28;20209;-91
2020/12/03 20:53:07;;;;;;;1.30;1.20;;;16.90;57.20;;;;;;5044946;28;20597;-92
2020/12/03 20:55:33;;;;;;;1.53;1.43;;;16.90;57.30;;;;;;5046454;28;20174;-93
2020/12/03 20:57:58;;;;;;;1.30;1.20;;;16.90;57.30;;;;;;5043327;28;20220;-94
2020/12/03 21:00:24;;;;;;;1.30;1.20;;;16.90;57.20;;;;;;5050660;28;20202;-92
2020/12/03 21:02:50;;;;;;;1.20;1.10;;;16.90;57.20;;;;;;5047867;28;20180;-95
2020/12/03 21:05:15;;;;;;;1.30;1.20;;;16.90;57.20;;;;;;5028848;28;20568;-91
2020/12/03 21:07:41;;;;;;;1.17;1.07;;;16.90;57.20;;;;;;5028779;28;20640;-92
2020/12/03 21:10:06;;;;;;;1.30;1.20;;;16.90;57.20;;;;;;5031444;28;20198;-92
2020/12/03 21:12:32;;;;;;;1.40;1.17;;;16.90;57.20;;;;;;5030251;28;20173;-93
2020/12/03 21:14:57;;;;;;;1.37;1.27;;;16.90;57.20;;;;;;5030834;28;20216;-93
2020/12/03 21:17:23;;;;;;;1.40;1.30;;;16.90;57.10;;;;;;5038659;28;20174;-92
2020/12/03 21:19:48;;;;;;;1.00;0.97;;;16.90;57.10;;;;;;5055014;28;20197;-96
2020/12/03 21:22:14;;;;;;;1.23;1.13;;;16.90;57.20;;;;;;5048334;28;20243;-92
2020/12/03 21:24:40;;;;;;;1.40;1.30;;;16.90;57.20;;;;;;5047251;28;20771;-92
2020/12/03 21:27:05;;;;;;;1.30;1.20;;;16.90;57.20;;;;;;5031840;28;20207;-92
2020/12/03 21:29:31;;;;;;;1.20;1.10;;;16.90;57.20;;;;;;5038439;28;20435;-92
2020/12/03 21:31:56;;;;;;;1.03;0.93;;;16.90;57.30;;;;;;5048418;28;20213;-92
2020/12/03 21:34:22;;;;;;;1.10;1.00;;;16.90;57.30;;;;;;5046638;28;20263;-92
2020/12/03 21:36:47;;;;;;;1.13;1.03;;;16.80;57.30;;;;;;5045980;28;20189;-92
2020/12/03 21:39:13;;;;;;;1.23;1.00;;;16.80;57.30;;;;;;5046832;28;20203;-92
2020/12/03 21:41:38;;;;;;;1.30;1.03;;;16.80;57.20;;;;;;5047097;28;20232;-92
2020/12/03 21:44:04;;;;;;;1.50;1.40;;;16.80;57.20;;;;;;5047293;28;20180;-92
2020/12/03 21:46:30;;;;;;;1.23;1.13;;;16.90;57.30;;;;;;5048118;28;20181;-92
2020/12/03 21:48:55;;;;;;;1.50;1.40;;;16.80;57.30;;;;;;5047964;28;20194;-92
2020/12/03 21:51:21;;;;;;;1.53;1.43;;;16.80;57.30;;;;;;5047566;28;20180;-92
2020/12/03 21:53:46;;;;;;;1.30;1.20;;;16.80;57.20;;;;;;5046655;28;20211;-92
2020/12/03 21:56:12;;;;;;;1.40;1.30;;;16.90;57.30;;;;;;5044892;28;20173;-92
2020/12/03 21:58:39;;;;;;;1.37;1.27;;;16.80;57.30;;;;;;5046176;28;20279;-92
2020/12/03 22:01:07;;;;;;;1.30;1.20;;;16.80;57.30;;;;;;5047879;28;20165;-92
2020/12/03 22:03:34;;;;;;;1.20;1.10;;;16.80;57.30;;;;;;5037510;28;20428;-92
2020/12/03 22:05:59;;;;;;;1.40;1.30;;;16.80;57.30;;;;;;5026695;28;20417;-92
2020/12/03 22:08:25;;;;;;;1.23;1.13;;;16.80;57.20;;;;;;5036628;28;20470;-92
2020/12/03 22:10:50;;;;;;;1.10;1.00;;;16.80;57.20;;;;;;5046245;28;20193;-92
2020/12/03 22:13:16;;;;;;;1.20;1.10;;;16.90;57.20;;;;;;5045225;28;20199;-92
2020/12/03 22:15:41;;;;;;;1.20;1.10;;;16.90;57.20;;;;;;5047689;28;20172;-92
2020/12/03 22:18:07;;;;;;;1.20;1.10;;;16.90;57.20;;;;;;5047918;28;20220;-92
2020/12/03 22:20:32;;;;;;;1.10;1.00;;;16.90;57.20;;;;;;5047270;28;20186;-92
2020/12/03 22:22:58;;;;;;;1.10;1.00;;;16.90;57.10;;;;;;5046331;28;20199;-93
2020/12/03 22:25:23;;;;;;;1.60;1.50;;;16.90;57.10;;;;;;5042737;28;20183;-92
2020/12/03 22:27:49;;;;;;;1.20;1.10;;;16.90;57.10;;;;;;5027926;28;20171;-92
2020/12/03 22:30:14;;;;;;;1.63;1.50;;;16.90;57.20;;;;;;5026071;28;20642;-92
2020/12/03 22:32:40;;;;;;;1.37;1.27;;;16.90;57.20;;;;;;5027805;28;20179;-92
2020/12/03 22:35:05;;;;;;;1.30;1.20;;;16.80;57.20;;;;;;5027666;28;20238;-93
2020/12/03 22:37:31;;;;;;;1.30;1.20;;;16.80;57.10;;;;;;5027332;28;20167;-92
2020/12/03 22:39:56;;;;;;;1.20;1.10;;;16.80;57.20;;;;;;5026067;28;20193;-92
2020/12/03 22:42:22;;;;;;;1.10;1.03;;;16.90;57.30;;;;;;5039758;28;20186;-93
2020/12/03 22:44:47;;;;;;;2.03;1.37;;;16.80;57.30;;;;;;5046134;28;20217;-92
2020/12/03 22:47:13;;;;;;;1.20;1.10;;;16.80;57.20;;;;;;5046568;28;20234;-92
2020/12/03 22:49:38;;;;;;;1.33;1.23;;;16.80;57.20;;;;;;5046882;28;20198;-92
2020/12/03 22:52:04;;;;;;;1.30;1.20;;;16.80;57.30;;;;;;5046128;28;20186;-92
2020/12/03 22:54:29;;;;;;;1.27;1.17;;;16.80;57.30;;;;;;5046300;28;20202;-92
2020/12/03 22:56:55;;;;;;;1.70;1.30;;;16.80;57.20;;;;;;5044577;28;20171;-92
2020/12/03 22:59:20;;;;;;;1.23;1.13;;;16.80;57.20;;;;;;5045649;28;20191;-92
2020/12/03 23:01:50;;;;;;;1.17;1.07;;;16.80;57.30;;;;;;5045990;27;20173;-92
2020/12/03 23:04:15;;;;;;;1.40;1.30;;;16.80;57.20;;;;;;5046277;27;20211;-92
2020/12/03 23:06:41;;;;;;;1.40;1.30;;;16.80;57.30;;;;;;5047593;27;20417;-92
2020/12/03 23:09:06;;;;;;;1.30;1.20;;;16.80;57.30;;;;;;5045745;28;20197;-91
2020/12/03 23:11:42;;;;;;;1.50;1.40;;;16.80;57.30;;;;;;5044139;28;20186;-92
2020/12/03 23:14:09;;;;;;;1.40;1.30;;;16.90;57.30;;;;;;5047207;28;20555;-92
2020/12/03 23:16:35;;;;;;;1.30;1.20;;;16.80;57.20;;;;;;5047699;28;20403;-92
2020/12/03 23:19:01;;;;;;;1.33;1.23;;;16.80;57.10;;;;;;5047233;28;20421;-91
2020/12/03 23:21:28;;;;;;;1.40;1.30;;;16.80;57.10;;;;;;5045847;28;20411;-92
2020/12/03 23:23:54;;;;;;;1.40;1.30;;;16.90;57.10;;;;;;5046081;28;20416;-92
2020/12/03 23:26:19;;;;;;;1.10;1.00;;;16.90;57.10;;;;;;5038421;28;20480;-92
2020/12/03 23:28:45;;;;;;;1.20;1.10;;;16.90;57.10;;;;;;5026531;28;20214;-92
2020/12/03 23:31:10;;;;;;;1.40;1.30;;;16.90;57.10;;;;;;5027100;28;20540;-92
2020/12/03 23:33:36;;;;;;;1.10;1.00;;;16.90;57.00;;;;;;5025941;28;20201;-92
2020/12/03 23:36:02;;;;;;;1.30;1.20;;;16.90;57.10;;;;;;5025911;28;20188;-92
2020/12/03 23:38:27;;;;;;;1.17;1.07;;;16.90;57.10;;;;;;5025676;28;20182;-91
2020/12/03 23:40:53;;;;;;;1.20;1.10;;;16.80;57.10;;;;;;5025417;28;20218;-92